Time;durP1;ratioP1;P1;durP2;ratioP2;P2;SDS_P1;SDS_P2;PMS_P1;PMS_P2;Temp;Humidity;BMP_temperature;BMP_pressure;BME280_temperature;BME280_humidity;BME280_pressure;Samples;Min_cycle;Max_cycle;Signal;HPM_P1;HPM_P2
2023/01/29 00:06:54;;;;;;;;;;;;;;;;;;6203000;22;19910;-86
2023/01/29 00:15:01;;;;;;;;;;;;;;;;;;6225310;22;19962;-84
2023/01/29 00:46:59;;;;;;;;;;;;;;;;;;6249444;22;19904;-88
2023/01/29 00:49:25;;;;;;;;;;;;;;;;;;6192257;23;19920;-87
2023/01/29 00:57:14;;;;;;;;;;;;;;;;;;6241775;22;19904;-82
2023/01/29 00:59:40;;;;;;;;;;;;;;;;;;6198019;23;19952;-86
2023/01/29 01:07:36;;;;;;;;;;;;;;;;;;6233214;22;20220;-85
2023/01/29 01:10:28;;;;;;;;;;;;;;;;;;6181020;23;19911;-81
2023/01/29 01:18:09;;;;;;;;;;;;;;;;;;6198749;23;19924;-84
2023/01/29 01:20:37;;;;;;;;;;;;;;;;;;6179432;23;19904;-86
2023/01/29 01:23:08;;;;;;;;;;;;;;;;;;6152880;23;19927;-86
2023/01/29 01:39:19;;;;;;;;;;;;;;;;;;6233694;22;19904;-86
2023/01/29 01:47:06;;;;;;;;;;;;;;;;;;6227794;22;19923;-86
2023/01/29 01:49:37;;;;;;;;;;;;;;;;;;6221783;22;19927;-88
2023/01/29 01:54:41;;;;;;;;;;;;;;;;;;6248896;22;19904;-87
2023/01/29 01:59:49;;;;;;;;;;;;;;;;;;6193600;23;19952;-83
2023/01/29 02:46:54;;;;;;;;;;;;;;;;;;6186170;23;19904;-84
2023/01/29 02:49:24;;;;;;;;;;;;;;;;;;6181176;22;19931;-87
2023/01/29 03:32:57;;;;;;;;;;;;;;;;;;6212432;22;19926;-83
2023/01/29 03:35:38;;;;;;;;;;;;;;;;;;6189311;22;19904;-83
2023/01/29 03:38:04;;;;;;;;;;;;;;;;;;6234103;22;20429;-83
2023/01/29 03:40:32;;;;;;;;;;;;;;;;;;6188888;22;20771;-84
2023/01/29 03:43:11;;;;;;;;;;;;;;;;;;6204489;22;19946;-84
2023/01/29 03:45:41;;;;;;;;;;;;;;;;;;6224965;22;19900;-86
2023/01/29 03:48:28;;;;;;;;;;;;;;;;;;6215340;22;19913;-86
2023/01/29 03:59:10;;;;;;;;;;;;;;;;;;6238137;22;19920;-82
2023/01/29 04:01:58;;;;;;;;;;;;;;;;;;6191975;23;19912;-81
2023/01/29 04:04:24;;;;;;;;;;;;;;;;;;6216041;23;19907;-83
2023/01/29 04:06:51;;;;;;;;;;;;;;;;;;6188540;23;19914;-81
2023/01/29 04:09:21;;;;;;;;;;;;;;;;;;6186327;23;19983;-79
2023/01/29 04:11:47;;;;;;;;;;;;;;;;;;6213615;23;19919;-81
2023/01/29 04:14:13;;;;;;;;;;;;;;;;;;6190655;23;19911;-80
2023/01/29 04:16:41;;;;;;;;;;;;;;;;;;6239125;23;19908;-81
2023/01/29 04:19:29;;;;;;;;;;;;;;;;;;6236122;23;19914;-82
2023/01/29 04:21:57;;;;;;;;;;;;;;;;;;6185760;23;19907;-82
2023/01/29 04:24:23;;;;;;;;;;;;;;;;;;6211084;23;19930;-82
2023/01/29 04:26:53;;;;;;;;;;;;;;;;;;6185200;23;19911;-80
2023/01/29 04:29:20;;;;;;;;;;;;;;;;;;6210794;23;19915;-82
2023/01/29 04:31:49;;;;;;;;;;;;;;;;;;6185749;23;19935;-82
2023/01/29 04:34:15;;;;;;;;;;;;;;;;;;6211516;23;19912;-83
2023/01/29 04:36:42;;;;;;;;;;;;;;;;;;6184949;23;19904;-81
2023/01/29 04:39:08;;;;;;;;;;;;;;;;;;6211133;23;19907;-81
2023/01/29 04:41:34;;;;;;;;;;;;;;;;;;6237135;23;19915;-82
2023/01/29 04:43:59;;;;;;;;;;;;;;;;;;6208320;23;19956;-81
2023/01/29 04:46:26;;;;;;;;;;;;;;;;;;6238744;23;19919;-82
2023/01/29 04:48:54;;;;;;;;;;;;;;;;;;6210814;23;19908;-81
2023/01/29 04:51:21;;;;;;;;;;;;;;;;;;6212533;23;19912;-81
2023/01/29 04:53:48;;;;;;;;;;;;;;;;;;6187881;23;19908;-81
2023/01/29 04:56:14;;;;;;;;;;;;;;;;;;6212248;23;19914;-81
2023/01/29 04:58:40;;;;;;;;;;;;;;;;;;6239093;23;19912;-82
2023/01/29 05:01:09;;;;;;;;;;;;;;;;;;6212737;23;19899;-82
2023/01/29 05:03:35;;;;;;;;;;;;;;;;;;6188678;23;19899;-82
2023/01/29 05:06:01;;;;;;;;;;;;;;;;;;6163403;23;19911;-82
2023/01/29 05:08:32;;;;;;;;;;;;;;;;;;6238299;23;19908;-81
2023/01/29 05:10:58;;;;;;;;;;;;;;;;;;6211683;23;20334;-81
2023/01/29 05:13:27;;;;;;;;;;;;;;;;;;6237198;23;19915;-82
2023/01/29 05:15:56;;;;;;;;;;;;;;;;;;6208834;23;19915;-81
2023/01/29 05:18:25;;;;;;;;;;;;;;;;;;6186459;23;19907;-82
2023/01/29 05:20:56;;;;;;;;;;;;;;;;;;6208238;23;19908;-82
2023/01/29 05:23:22;;;;;;;;;;;;;;;;;;6187698;23;19931;-81
2023/01/29 05:25:57;;;;;;;;;;;;;;;;;;6187178;23;19914;-82
2023/01/29 05:28:29;;;;;;;;;;;;;;;;;;6164889;23;20246;-82
2023/01/29 05:30:56;;;;;;;;;;;;;;;;;;6212656;23;19960;-82
2023/01/29 05:33:25;;;;;;;;;;;;;;;;;;6188481;23;19908;-81
2023/01/29 05:35:52;;;;;;;;;;;;;;;;;;6212727;23;19915;-81
2023/01/29 05:38:18;;;;;;;;;;;;;;;;;;6162185;23;19907;-81
2023/01/29 05:40:44;;;;;;;;;;;;;;;;;;6187454;23;19951;-82
2023/01/29 05:43:10;;;;;;;;;;;;;;;;;;6189027;23;19972;-82
2023/01/29 05:45:37;;;;;;;;;;;;;;;;;;6189751;23;19904;-81
2023/01/29 05:48:06;;;;;;;;;;;;;;;;;;6187624;23;19892;-82
2023/01/29 05:50:32;;;;;;;;;;;;;;;;;;6189072;23;19908;-82
2023/01/29 05:52:59;;;;;;;;;;;;;;;;;;6214460;23;19935;-82
2023/01/29 05:55:25;;;;;;;;;;;;;;;;;;6215850;23;19908;-81
2023/01/29 05:57:55;;;;;;;;;;;;;;;;;;6192226;23;19911;-82
2023/01/29 06:00:21;;;;;;;;;;;;;;;;;;6191736;23;19916;-82
2023/01/29 06:02:51;;;;;;;;;;;;;;;;;;6216831;23;19908;-82
2023/01/29 06:05:21;;;;;;;;;;;;;;;;;;6191665;23;19926;-82
2023/01/29 06:07:49;;;;;;;;;;;;;;;;;;6216832;23;19892;-82
2023/01/29 06:10:25;;;;;;;;;;;;;;;;;;6192800;23;19915;-82
2023/01/29 06:12:58;;;;;;;;;;;;;;;;;;6193325;23;19907;-82
2023/01/29 06:15:29;;;;;;;;;;;;;;;;;;6192152;23;19912;-82
2023/01/29 06:18:03;;;;;;;;;;;;;;;;;;6191688;23;19908;-81
2023/01/29 06:20:35;;;;;;;;;;;;;;;;;;6191942;23;19908;-82
2023/01/29 06:23:02;;;;;;;;;;;;;;;;;;6190958;23;19914;-83
2023/01/29 06:25:29;;;;;;;;;;;;;;;;;;6189784;23;20241;-81
2023/01/29 06:27:57;;;;;;;;;;;;;;;;;;6192052;23;19915;-83
2023/01/29 06:30:24;;;;;;;;;;;;;;;;;;6192330;23;19951;-83
2023/01/29 06:32:52;;;;;;;;;;;;;;;;;;6167194;23;19904;-82
2023/01/29 06:35:23;;;;;;;;;;;;;;;;;;6167866;23;19908;-81
2023/01/29 06:37:56;;;;;;;;;;;;;;;;;;6193375;23;19907;-82
2023/01/29 06:40:29;;;;;;;;;;;;;;;;;;6192651;23;19915;-82
2023/01/29 06:42:56;;;;;;;;;;;;;;;;;;6167544;23;19904;-82
2023/01/29 06:45:23;;;;;;;;;;;;;;;;;;6215484;23;19915;-82
2023/01/29 06:47:59;;;;;;;;;;;;;;;;;;6217955;23;19914;-82
2023/01/29 06:50:30;;;;;;;;;;;;;;;;;;6191187;23;19923;-83
2023/01/29 06:52:58;;;;;;;;;;;;;;;;;;6190015;23;20326;-81
2023/01/29 06:55:29;;;;;;;;;;;;;;;;;;6215932;23;19899;-82
2023/01/29 06:57:56;;;;;;;;;;;;;;;;;;6215019;23;19919;-81
2023/01/29 07:00:25;;;;;;;;;;;;;;;;;;6164945;23;19904;-83
2023/01/29 07:02:55;;;;;;;;;;;;;;;;;;6188051;23;19908;-82
2023/01/29 07:05:27;;;;;;;;;;;;;;;;;;6192029;23;19915;-82
2023/01/29 07:07:54;;;;;;;;;;;;;;;;;;6191373;23;19952;-82
2023/01/29 07:10:26;;;;;;;;;;;;;;;;;;6190862;23;19908;-82
2023/01/29 07:12:58;;;;;;;;;;;;;;;;;;6164564;23;19956;-82
2023/01/29 07:15:24;;;;;;;;;;;;;;;;;;6165802;23;19915;-82
2023/01/29 07:17:51;;;;;;;;;;;;;;;;;;6189795;23;19896;-81
2023/01/29 07:20:18;;;;;;;;;;;;;;;;;;6188869;23;19892;-81
2023/01/29 07:22:44;;;;;;;;;;;;;;;;;;6187784;23;19908;-81
2023/01/29 07:25:11;;;;;;;;;;;;;;;;;;6187920;23;19938;-81
2023/01/29 07:27:37;;;;;;;;;;;;;;;;;;6165113;23;19908;-81
2023/01/29 07:30:06;;;;;;;;;;;;;;;;;;6191993;23;19892;-81
2023/01/29 07:32:36;;;;;;;;;;;;;;;;;;6214136;23;19908;-80
2023/01/29 07:35:02;;;;;;;;;;;;;;;;;;6213129;23;19957;-81
2023/01/29 07:37:38;;;;;;;;;;;;;;;;;;6192165;23;19908;-82
2023/01/29 07:40:10;;;;;;;;;;;;;;;;;;6191232;23;19914;-82
2023/01/29 07:42:43;;;;;;;;;;;;;;;;;;6186331;23;19927;-82
2023/01/29 07:45:14;;;;;;;;;;;;;;;;;;6215586;22;19927;-81
2023/01/29 07:47:55;;;;;;;;;;;;;;;;;;6170576;23;19907;-81
2023/01/29 07:50:24;;;;;;;;;;;;;;;;;;6165729;23;19908;-81
2023/01/29 07:52:50;;;;;;;;;;;;;;;;;;6212798;23;19912;-81
2023/01/29 07:55:19;;;;;;;;;;;;;;;;;;6188167;23;19922;-81
2023/01/29 07:57:46;;;;;;;;;;;;;;;;;;6186651;23;19927;-81
2023/01/29 08:00:23;;;;;;;;;;;;;;;;;;6237229;23;19908;-82
2023/01/29 08:02:50;;;;;;;;;;;;;;;;;;6164188;23;19908;-82
2023/01/29 08:05:17;;;;;;;;;;;;;;;;;;6164049;23;19892;-82
2023/01/29 08:07:45;;;;;;;;;;;;;;;;;;6163946;23;20390;-81
2023/01/29 08:10:17;;;;;;;;;;;;;;;;;;6187301;23;19908;-81
2023/01/29 08:12:47;;;;;;;;;;;;;;;;;;6163670;23;19908;-82
2023/01/29 08:15:17;;;;;;;;;;;;;;;;;;6240261;23;19915;-81
2023/01/29 08:17:44;;;;;;;;;;;;;;;;;;6190385;23;19915;-82
2023/01/29 08:20:16;;;;;;;;;;;;;;;;;;6190098;23;19900;-82
2023/01/29 08:22:48;;;;;;;;;;;;;;;;;;6189073;23;19908;-81
2023/01/29 08:25:17;;;;;;;;;;;;;;;;;;6186739;23;19979;-81
2023/01/29 08:27:46;;;;;;;;;;;;;;;;;;6187124;23;19908;-81
2023/01/29 08:30:15;;;;;;;;;;;;;;;;;;6187381;23;19927;-80
2023/01/29 08:32:42;;;;;;;;;;;;;;;;;;6187195;23;19908;-81
2023/01/29 08:35:20;;;;;;;;;;;;;;;;;;6190384;23;19904;-81
2023/01/29 08:37:49;;;;;;;;;;;;;;;;;;6160573;23;19991;-81
2023/01/29 08:40:15;;;;;;;;;;;;;;;;;;6185056;23;19912;-81
2023/01/29 08:42:44;;;;;;;;;;;;;;;;;;6159459;23;19958;-81
2023/01/29 08:45:13;;;;;;;;;;;;;;;;;;6186116;23;19908;-82
2023/01/29 08:47:39;;;;;;;;;;;;;;;;;;6162927;23;19931;-82
2023/01/29 08:50:08;;;;;;;;;;;;;;;;;;6186202;23;19927;-81
2023/01/29 08:52:35;;;;;;;;;;;;;;;;;;6163125;23;19918;-81
2023/01/29 08:55:03;;;;;;;;;;;;;;;;;;6212674;23;19908;-81
2023/01/29 08:57:29;;;;;;;;;;;;;;;;;;6211784;23;19908;-82
2023/01/29 08:59:56;;;;;;;;;;;;;;;;;;6161949;23;19916;-82
2023/01/29 09:02:50;;;;;;;;;;;;;;;;;;6192501;23;19938;-81
2023/01/29 09:05:18;;;;;;;;;;;;;;;;;;6211910;23;19907;-82
2023/01/29 09:07:48;;;;;;;;;;;;;;;;;;6188003;23;19907;-83
2023/01/29 09:10:14;;;;;;;;;;;;;;;;;;6213112;23;19907;-82
2023/01/29 09:12:44;;;;;;;;;;;;;;;;;;6188217;23;19907;-82
2023/01/29 09:15:16;;;;;;;;;;;;;;;;;;6189037;23;19908;-82
2023/01/29 09:17:48;;;;;;;;;;;;;;;;;;6186822;23;19912;-82
2023/01/29 09:20:19;;;;;;;;;;;;;;;;;;6213521;23;19912;-81
2023/01/29 09:22:59;;;;;;;;;;;;;;;;;;6211215;23;19931;-81
2023/01/29 09:25:28;;;;;;;;;;;;;;;;;;6163191;23;19915;-81
2023/01/29 09:28:13;;;;;;;;;;;;;;;;;;6190560;23;19919;-82
2023/01/29 09:30:39;;;;;;;;;;;;;;;;;;6188420;23;19912;-82
2023/01/29 09:33:14;;;;;;;;;;;;;;;;;;6187560;23;19919;-83
2023/01/29 09:35:57;;;;;;;;;;;;;;;;;;6210984;23;19916;-82
2023/01/29 09:38:23;;;;;;;;;;;;;;;;;;6161137;23;19908;-82
2023/01/29 09:40:50;;;;;;;;;;;;;;;;;;6184717;23;19931;-81
2023/01/29 09:43:17;;;;;;;;;;;;;;;;;;6186994;23;19908;-82
2023/01/29 09:45:43;;;;;;;;;;;;;;;;;;6186796;23;19953;-82
2023/01/29 09:48:12;;;;;;;;;;;;;;;;;;6207354;23;19958;-81
2023/01/29 09:50:38;;;;;;;;;;;;;;;;;;6211249;23;19912;-82
2023/01/29 09:53:08;;;;;;;;;;;;;;;;;;6163884;23;19956;-83
2023/01/29 09:55:48;;;;;;;;;;;;;;;;;;6189935;23;19914;-82
2023/01/29 10:01:12;;;;;;;;;;;;;;;;;;6245924;22;19951;-83
2023/01/29 10:03:38;;;;;;;;;;;;;;;;;;6223616;23;19904;-84
2023/01/29 10:06:08;;;;;;;;;;;;;;;;;;6231439;22;19923;-85
2023/01/29 10:08:37;;;;;;;;;;;;;;;;;;6188173;23;19896;-85
2023/01/29 10:11:10;;;;;;;;;;;;;;;;;;6164262;23;19904;-85
2023/01/29 10:13:36;;;;;;;;;;;;;;;;;;6140488;23;19928;-84
2023/01/29 10:16:07;;;;;;;;;;;;;;;;;;6153699;23;19916;-85
2023/01/29 10:18:35;;;;;;;;;;;;;;;;;;6202642;23;19911;-85
2023/01/29 10:21:03;;;;;;;;;;;;;;;;;;6193594;22;19935;-84
2023/01/29 10:23:33;;;;;;;;;;;;;;;;;;6216837;22;19934;-84
2023/01/29 10:26:05;;;;;;;;;;;;;;;;;;6192244;22;19929;-86
2023/01/29 10:28:32;;;;;;;;;;;;;;;;;;6249034;23;19895;-86
2023/01/29 10:44:30;;;;;;;;;;;;;;;;;;6234203;22;20088;-84
2023/01/29 10:47:07;;;;;;;;;;;;;;;;;;6157650;23;19928;-82
2023/01/29 10:57:31;;;;;;;;;;;;;;;;;;6271951;22;19923;-87
2023/01/29 10:59:58;;;;;;;;;;;;;;;;;;6166966;23;19965;-83
2023/01/29 11:02:24;;;;;;;;;;;;;;;;;;6164996;23;19924;-83
2023/01/29 11:20:57;;;;;;;;;;;;;;;;;;6230025;22;19923;-86
2023/01/29 11:23:31;;;;;;;;;;;;;;;;;;6199274;23;19916;-84
2023/01/29 11:26:03;;;;;;;;;;;;;;;;;;6213676;23;19935;-85
2023/01/29 11:31:18;;;;;;;;;;;;;;;;;;6212001;23;19920;-86
2023/01/29 11:33:46;;;;;;;;;;;;;;;;;;6163766;23;20141;-83
2023/01/29 11:36:22;;;;;;;;;;;;;;;;;;6137824;23;19939;-84
2023/01/29 11:38:54;;;;;;;;;;;;;;;;;;6145121;23;19928;-86
2023/01/29 11:41:25;;;;;;;;;;;;;;;;;;6134677;23;19911;-85
2023/01/29 11:43:58;;;;;;;;;;;;;;;;;;6135670;23;19912;-87
2023/01/29 11:46:34;;;;;;;;;;;;;;;;;;6135091;23;22169;-85
2023/01/29 11:49:03;;;;;;;;;;;;;;;;;;6111067;23;19920;-86
2023/01/29 12:00:01;;;;;;;;;;;;;;;;;;;;;
2023/01/29 12:13:26;;;;;;;;;;;;;;;;;;6192529;22;19912;-86
2023/01/29 19:36:46;;;;;;;;;;;;;;;;;;5455334;23;19925;-86
2023/01/29 19:42:14;;;;;;;;;;;;;;;;;;5526080;23;19918;-84
2023/01/29 19:44:43;;;;;;;;;;;;;;;;;;4930855;28;19919;-85
2023/01/29 19:47:13;;;;;;;;;;;;;;;;;;4946966;28;19911;-86
2023/01/29 19:58:09;;;;;;;;;;;;;;;;;;5721973;23;19911;-84
2023/01/29 20:00:42;;;;;;;;;;;;;;;;;;4962277;28;19903;-84
2023/01/29 20:08:39;;;;;;;;;;;;;;;;;;5640306;23;19938;-85
2023/01/29 20:55:11;;;;;;;;;;;;;;;;;;5123447;23;19951;-82
2023/01/29 20:57:42;;;;;;;;;;;;;;;;;;4912408;29;19916;-82
2023/01/29 21:00:11;;;;;;;;;;;;;;;;;;4909184;29;19923;-82
2023/01/29 21:02:39;;;;;;;;;;;;;;;;;;4907017;29;19915;-82
2023/01/29 21:05:05;;;;;;;;;;;;;;;;;;4908762;29;19915;-82
2023/01/29 21:07:42;;;;;;;;;;;;;;;;;;4899466;29;19987;-82
2023/01/29 21:10:09;;;;;;;;;;;;;;;;;;4910860;29;19923;-83
2023/01/29 21:12:37;;;;;;;;;;;;;;;;;;4925579;29;19915;-82
2023/01/29 21:15:03;;;;;;;;;;;;;;;;;;4909977;29;19922;-82
2023/01/29 21:17:29;;;;;;;;;;;;;;;;;;4920130;29;19919;-83
2023/01/29 21:20:06;;;;;;;;;;;;;;;;;;4903326;29;19955;-83
2023/01/29 21:22:32;;;;;;;;;;;;;;;;;;4919546;29;19903;-84
2023/01/29 21:25:01;;;;;;;;;;;;;;;;;;4906577;29;19934;-83
2023/01/29 21:27:27;;;;;;;;;;;;;;;;;;4904508;29;19908;-82
2023/01/29 21:29:59;;;;;;;;;;;;;;;;;;4928652;29;19940;-84
2023/01/29 21:35:15;;;;;;;;;;;;;;;;;;5556295;23;19915;-85
2023/01/29 21:37:43;;;;;;;;;;;;;;;;;;4944237;28;19941;-84
2023/01/29 21:45:41;;;;;;;;;;;;;;;;;;4960248;28;19910;-84
2023/01/29 21:48:12;;;;;;;;;;;;;;;;;;4944516;28;19907;-85
2023/01/29 21:50:47;;;;;;;;;;;;;;;;;;4959383;29;19898;-84
2023/01/29 21:53:20;;;;;;;;;;;;;;;;;;4928052;29;19914;-83
2023/01/29 21:55:49;;;;;;;;;;;;;;;;;;4959024;28;19919;-84
2023/01/29 21:58:21;;;;;;;;;;;;;;;;;;4960139;28;19938;-85
2023/01/29 22:00:49;;;;;;;;;;;;;;;;;;4928022;29;19903;-84
2023/01/29 22:03:21;;;;;;;;;;;;;;;;;;4944413;28;20004;-83
2023/01/29 22:05:56;;;;;;;;;;;;;;;;;;4928149;29;19934;-82
2023/01/29 22:08:26;;;;;;;;;;;;;;;;;;4944647;29;19951;-83
